Khoy, Iran

11:08 PM IRDT on September 18, 2014 (GMT +0430)
NAKHCHIVAN | Change Station
CLOSE
Current Station
Airport
Location: NAKHCHIVAN,
Elevation: 2864 ft
Nearby Weather Stations

Elev 2864 ft 39.19 °N, 45.46 °E | Updated 8 minutes ago

Scattered Clouds
Scattered Clouds
70 °F
Feels Like 70 °F
N
14
Wind Variable Wind from ESE

Today
High -- | Low -- °F
--% Chance of Precip.
Yesterday
High -- | Low -- °F
Precip. -- in
7:13 AM 7:34 PM
Waning Crescent, 25% visible
Pressure 29.98 in
Visibility 6.2 miles
Clouds Few 5000 ft
Scattered Clouds 10000 ft
Dew Point 50 °F
Humidity 49%
Rainfall 0.00 in
Snow Depth Not available.
UV 0 out of 12
Pollen Not available.
Air Quality Not available.
Flu Activity Not available.
METAR UBBN 181830Z 12012KT 9999 FEW050 SCT100 21/10 Q1015 R14R/CLRD60 NOSIG RMK MT OP QFE686

More Conditions Fewer Conditions

Pressure 29.98 in
Visibility 6.2 miles
Clouds Few 5000 ft
Scattered Clouds 10000 ft
Dew Point 50 °F
Humidity 49%
Rainfall 0.00 in
Snow Depth Not available.
UV 0 out of 12
Pollen Not available.
Air Quality Not available.
Flu Activity Not available.
METAR UBBN 181830Z 12012KT 9999 FEW050 SCT100 21/10 Q1015 R14R/CLRD60 NOSIG RMK MT OP QFE686

More Conditions Fewer Conditions

10-Day Weather Forecast

Almanac

Astronomy

Sep. 18, 2014 Rise Set
Actual Time 7:13 AM IRDT 7:34 PM IRDT
Civil Twilight 6:47 AM IRDT 8:00 PM IRDT
Nautical Twilight 6:16 AM IRDT 8:31 PM IRDT
Astronomical Twilight 5:44 AM IRDT 9:03 PM IRDT
Moon 1:49 AM IRDT 4:07 PM IRDT
Length of Visible Light 13h 13m
Length of Day
12h 20m
Tomorrow will be 2m 29s shorter.
Waning Crescent, 25% of the Moon is Illuminated
Today
Waning Crescent
Sep 24
New
Oct 1
First Quarter
Oct 8
Full
Oct 15
Last Quarter

Today's Extremes

Country Highs Country Lows

Community

WunderPhotos

Upload Photos

1,754,417 photos uploaded!

WunderBlogs® & News

Nearby

Snow Depth

Not available.

Earthquake Activity

City Distance Mag. Time & Date
No recent earthquake activity has been reported nearby.
Minimum magnitude displayed is 2.5.

Coastal Water Temperatures

Place Temperature
No Stations Reporting

Nearby Weather Stations